sensor_id;sensor_type;location;lat;lon;timestamp;P1;durP1;ratioP1;P2;durP2;ratioP2
5040;SDS011;2539;52.568;13.364;2024-02-21T00:00:02;23.67;;;6.90;;
5040;SDS011;2539;52.568;13.364;2024-02-21T00:02:28;17.83;;;6.70;;
5040;SDS011;2539;52.568;13.364;2024-02-21T00:04:55;21.57;;;7.60;;
5040;SDS011;2539;52.568;13.364;2024-02-21T00:07:21;23.10;;;7.93;;
5040;SDS011;2539;52.568;13.364;2024-02-21T00:09:48;18.13;;;6.27;;
5040;SDS011;2539;52.568;13.364;2024-02-21T00:12:14;20.77;;;6.90;;
5040;SDS011;2539;52.568;13.364;2024-02-21T00:14:41;19.83;;;6.80;;
5040;SDS011;2539;52.568;13.364;2024-02-21T00:17:07;16.57;;;6.90;;
5040;SDS011;2539;52.568;13.364;2024-02-21T00:19:33;19.20;;;6.60;;
5040;SDS011;2539;52.568;13.364;2024-02-21T00:21:59;22.63;;;7.40;;
5040;SDS011;2539;52.568;13.364;2024-02-21T00:24:25;23.37;;;6.73;;
5040;SDS011;2539;52.568;13.364;2024-02-21T00:26:50;23.60;;;6.90;;
5040;SDS011;2539;52.568;13.364;2024-02-21T00:29:17;18.50;;;7.40;;
5040;SDS011;2539;52.568;13.364;2024-02-21T00:31:43;21.83;;;6.47;;
5040;SDS011;2539;52.568;13.364;2024-02-21T00:34:10;17.67;;;5.93;;
5040;SDS011;2539;52.568;13.364;2024-02-21T00:36:38;21.00;;;6.23;;
5040;SDS011;2539;52.568;13.364;2024-02-21T00:39:04;21.70;;;6.80;;
5040;SDS011;2539;52.568;13.364;2024-02-21T00:41:31;18.33;;;6.03;;
5040;SDS011;2539;52.568;13.364;2024-02-21T00:43:57;18.13;;;6.00;;
5040;SDS011;2539;52.568;13.364;2024-02-21T00:46:24;13.60;;;6.27;;
5040;SDS011;2539;52.568;13.364;2024-02-21T00:48:50;21.23;;;6.90;;
5040;SDS011;2539;52.568;13.364;2024-02-21T00:51:16;15.17;;;6.00;;
5040;SDS011;2539;52.568;13.364;2024-02-21T00:53:42;20.53;;;5.87;;
5040;SDS011;2539;52.568;13.364;2024-02-21T00:56:09;20.17;;;6.20;;
5040;SDS011;2539;52.568;13.364;2024-02-21T00:58:35;17.03;;;6.23;;
5040;SDS011;2539;52.568;13.364;2024-02-21T01:01:01;14.07;;;6.10;;
5040;SDS011;2539;52.568;13.364;2024-02-21T01:03:28;19.10;;;5.83;;
5040;SDS011;2539;52.568;13.364;2024-02-21T01:05:55;15.93;;;5.30;;
5040;SDS011;2539;52.568;13.364;2024-02-21T01:08:24;15.57;;;5.63;;
5040;SDS011;2539;52.568;13.364;2024-02-21T01:10:50;18.17;;;6.40;;
5040;SDS011;2539;52.568;13.364;2024-02-21T01:13:17;17.70;;;6.17;;
5040;SDS011;2539;52.568;13.364;2024-02-21T01:15:44;17.23;;;6.70;;
5040;SDS011;2539;52.568;13.364;2024-02-21T01:18:10;19.70;;;5.87;;
5040;SDS011;2539;52.568;13.364;2024-02-21T01:20:39;13.57;;;6.17;;
5040;SDS011;2539;52.568;13.364;2024-02-21T01:23:05;26.50;;;6.47;;
5040;SDS011;2539;52.568;13.364;2024-02-21T01:25:31;10.30;;;4.87;;
5040;SDS011;2539;52.568;13.364;2024-02-21T01:27:58;13.83;;;6.00;;
5040;SDS011;2539;52.568;13.364;2024-02-21T01:30:24;17.27;;;5.83;;
5040;SDS011;2539;52.568;13.364;2024-02-21T01:32:50;11.33;;;5.43;;
5040;SDS011;2539;52.568;13.364;2024-02-21T01:35:17;15.50;;;5.50;;
5040;SDS011;2539;52.568;13.364;2024-02-21T01:37:45;25.10;;;5.90;;
5040;SDS011;2539;52.568;13.364;2024-02-21T01:40:11;15.50;;;6.07;;
5040;SDS011;2539;52.568;13.364;2024-02-21T01:42:38;14.00;;;5.53;;
5040;SDS011;2539;52.568;13.364;2024-02-21T01:45:06;12.77;;;5.27;;
5040;SDS011;2539;52.568;13.364;2024-02-21T01:47:32;15.97;;;5.97;;
5040;SDS011;2539;52.568;13.364;2024-02-21T01:49:59;13.00;;;4.90;;
5040;SDS011;2539;52.568;13.364;2024-02-21T01:52:28;18.00;;;5.70;;
5040;SDS011;2539;52.568;13.364;2024-02-21T01:54:56;15.20;;;5.83;;
5040;SDS011;2539;52.568;13.364;2024-02-21T01:57:23;13.30;;;5.27;;
5040;SDS011;2539;52.568;13.364;2024-02-21T01:59:50;16.30;;;5.13;;
5040;SDS011;2539;52.568;13.364;2024-02-21T02:02:16;14.63;;;4.60;;
5040;SDS011;2539;52.568;13.364;2024-02-21T02:04:44;12.83;;;5.73;;
5040;SDS011;2539;52.568;13.364;2024-02-21T02:07:11;13.80;;;5.10;;
5040;SDS011;2539;52.568;13.364;2024-02-21T02:09:37;13.53;;;4.93;;
5040;SDS011;2539;52.568;13.364;2024-02-21T02:12:04;15.57;;;5.37;;
5040;SDS011;2539;52.568;13.364;2024-02-21T02:14:31;16.80;;;5.50;;
5040;SDS011;2539;52.568;13.364;2024-02-21T02:16:57;16.63;;;5.13;;
5040;SDS011;2539;52.568;13.364;2024-02-21T02:19:23;13.50;;;5.27;;
5040;SDS011;2539;52.568;13.364;2024-02-21T02:21:51;16.90;;;5.90;;
5040;SDS011;2539;52.568;13.364;2024-02-21T02:24:22;18.57;;;5.40;;
5040;SDS011;2539;52.568;13.364;2024-02-21T02:26:51;11.63;;;5.10;;
5040;SDS011;2539;52.568;13.364;2024-02-21T02:29:17;16.73;;;5.60;;
5040;SDS011;2539;52.568;13.364;2024-02-21T02:31:44;12.00;;;5.50;;
5040;SDS011;2539;52.568;13.364;2024-02-21T02:34:10;15.00;;;6.30;;
5040;SDS011;2539;52.568;13.364;2024-02-21T02:36:37;17.30;;;5.90;;
5040;SDS011;2539;52.568;13.364;2024-02-21T02:39:03;17.33;;;5.50;;
5040;SDS011;2539;52.568;13.364;2024-02-21T02:41:29;14.60;;;6.00;;
5040;SDS011;2539;52.568;13.364;2024-02-21T02:43:55;19.80;;;6.00;;
5040;SDS011;2539;52.568;13.364;2024-02-21T02:46:22;11.83;;;5.93;;
5040;SDS011;2539;52.568;13.364;2024-02-21T02:48:48;16.07;;;6.20;;
5040;SDS011;2539;52.568;13.364;2024-02-21T02:51:14;19.00;;;5.97;;
5040;SDS011;2539;52.568;13.364;2024-02-21T02:53:40;18.50;;;6.33;;
5040;SDS011;2539;52.568;13.364;2024-02-21T02:56:06;14.77;;;5.53;;
5040;SDS011;2539;52.568;13.364;2024-02-21T03:01:10;14.20;;;6.10;;
5040;SDS011;2539;52.568;13.364;2024-02-21T03:03:36;17.20;;;6.03;;
5040;SDS011;2539;52.568;13.364;2024-02-21T03:06:02;15.97;;;6.07;;
5040;SDS011;2539;52.568;13.364;2024-02-21T03:08:28;13.73;;;6.60;;
5040;SDS011;2539;52.568;13.364;2024-02-21T03:10:53;18.83;;;5.90;;
5040;SDS011;2539;52.568;13.364;2024-02-21T03:13:19;21.00;;;6.80;;
5040;SDS011;2539;52.568;13.364;2024-02-21T03:15:45;21.20;;;7.33;;
5040;SDS011;2539;52.568;13.364;2024-02-21T03:18:11;22.60;;;6.77;;
5040;SDS011;2539;52.568;13.364;2024-02-21T03:20:37;15.20;;;6.60;;
5040;SDS011;2539;52.568;13.364;2024-02-21T03:23:04;18.23;;;7.57;;
5040;SDS011;2539;52.568;13.364;2024-02-21T03:25:30;22.10;;;7.40;;
5040;SDS011;2539;52.568;13.364;2024-02-21T03:27:57;17.93;;;8.23;;
5040;SDS011;2539;52.568;13.364;2024-02-21T03:30:23;23.40;;;7.43;;
5040;SDS011;2539;52.568;13.364;2024-02-21T03:32:48;21.33;;;7.30;;
5040;SDS011;2539;52.568;13.364;2024-02-21T03:35:14;13.40;;;7.53;;
5040;SDS011;2539;52.568;13.364;2024-02-21T03:37:40;16.13;;;6.50;;
5040;SDS011;2539;52.568;13.364;2024-02-21T03:40:06;21.77;;;8.37;;
5040;SDS011;2539;52.568;13.364;2024-02-21T03:42:34;17.03;;;7.67;;
5040;SDS011;2539;52.568;13.364;2024-02-21T03:45:00;19.77;;;7.87;;
5040;SDS011;2539;52.568;13.364;2024-02-21T03:47:26;18.33;;;8.00;;
5040;SDS011;2539;52.568;13.364;2024-02-21T03:49:53;15.30;;;7.40;;
5040;SDS011;2539;52.568;13.364;2024-02-21T03:52:19;22.00;;;8.63;;
5040;SDS011;2539;52.568;13.364;2024-02-21T03:54:45;18.10;;;8.17;;
5040;SDS011;2539;52.568;13.364;2024-02-21T03:57:11;15.90;;;8.10;;
5040;SDS011;2539;52.568;13.364;2024-02-21T03:59:38;18.03;;;9.30;;
5040;SDS011;2539;52.568;13.364;2024-02-21T04:02:06;16.80;;;7.87;;
5040;SDS011;2539;52.568;13.364;2024-02-21T04:04:35;16.87;;;8.33;;
5040;SDS011;2539;52.568;13.364;2024-02-21T04:07:03;16.30;;;8.10;;
5040;SDS011;2539;52.568;13.364;2024-02-21T04:09:32;18.67;;;8.97;;
5040;SDS011;2539;52.568;13.364;2024-02-21T04:11:59;16.97;;;7.50;;
5040;SDS011;2539;52.568;13.364;2024-02-21T04:14:26;19.13;;;8.40;;
5040;SDS011;2539;52.568;13.364;2024-02-21T04:16:52;20.47;;;9.20;;
5040;SDS011;2539;52.568;13.364;2024-02-21T04:19:19;18.40;;;9.00;;
5040;SDS011;2539;52.568;13.364;2024-02-21T04:21:45;20.40;;;8.77;;
5040;SDS011;2539;52.568;13.364;2024-02-21T04:24:11;19.53;;;8.40;;
5040;SDS011;2539;52.568;13.364;2024-02-21T04:26:37;17.10;;;8.70;;
5040;SDS011;2539;52.568;13.364;2024-02-21T04:29:03;19.53;;;8.70;;
5040;SDS011;2539;52.568;13.364;2024-02-21T04:31:32;17.90;;;8.00;;
5040;SDS011;2539;52.568;13.364;2024-02-21T04:33:59;24.00;;;8.87;;
5040;SDS011;2539;52.568;13.364;2024-02-21T04:36:25;18.30;;;8.20;;
5040;SDS011;2539;52.568;13.364;2024-02-21T04:38:51;21.33;;;8.80;;
5040;SDS011;2539;52.568;13.364;2024-02-21T04:41:17;19.00;;;9.27;;
5040;SDS011;2539;52.568;13.364;2024-02-21T04:43:45;18.63;;;9.10;;
5040;SDS011;2539;52.568;13.364;2024-02-21T04:46:12;22.20;;;9.70;;
5040;SDS011;2539;52.568;13.364;2024-02-21T04:48:39;21.50;;;9.30;;
5040;SDS011;2539;52.568;13.364;2024-02-21T04:51:05;25.80;;;9.30;;
5040;SDS011;2539;52.568;13.364;2024-02-21T04:53:31;15.67;;;8.03;;
5040;SDS011;2539;52.568;13.364;2024-02-21T04:55:58;17.90;;;8.13;;
5040;SDS011;2539;52.568;13.364;2024-02-21T04:58:24;17.70;;;8.23;;
5040;SDS011;2539;52.568;13.364;2024-02-21T05:00:51;16.93;;;8.80;;
5040;SDS011;2539;52.568;13.364;2024-02-21T05:03:19;15.57;;;8.50;;
5040;SDS011;2539;52.568;13.364;2024-02-21T05:05:45;19.97;;;8.40;;
5040;SDS011;2539;52.568;13.364;2024-02-21T05:08:11;27.10;;;9.87;;
5040;SDS011;2539;52.568;13.364;2024-02-21T05:10:38;21.33;;;8.83;;
5040;SDS011;2539;52.568;13.364;2024-02-21T05:13:04;18.53;;;8.60;;
5040;SDS011;2539;52.568;13.364;2024-02-21T05:15:31;16.90;;;8.67;;
5040;SDS011;2539;52.568;13.364;2024-02-21T05:17:57;17.90;;;8.80;;
5040;SDS011;2539;52.568;13.364;2024-02-21T05:20:41;23.30;;;9.70;;
5040;SDS011;2539;52.568;13.364;2024-02-21T05:23:25;18.47;;;9.10;;
5040;SDS011;2539;52.568;13.364;2024-02-21T05:26:09;24.03;;;10.77;;
5040;SDS011;2539;52.568;13.364;2024-02-21T05:28:36;21.67;;;9.23;;
5040;SDS011;2539;52.568;13.364;2024-02-21T05:31:02;22.53;;;9.80;;
5040;SDS011;2539;52.568;13.364;2024-02-21T05:33:28;21.37;;;8.57;;
5040;SDS011;2539;52.568;13.364;2024-02-21T05:35:54;22.57;;;9.90;;
5040;SDS011;2539;52.568;13.364;2024-02-21T05:38:21;16.70;;;8.67;;
5040;SDS011;2539;52.568;13.364;2024-02-21T05:40:47;18.67;;;9.20;;
5040;SDS011;2539;52.568;13.364;2024-02-21T05:43:13;19.30;;;8.73;;
5040;SDS011;2539;52.568;13.364;2024-02-21T05:45:39;23.90;;;10.67;;
5040;SDS011;2539;52.568;13.364;2024-02-21T05:48:06;24.93;;;10.67;;
5040;SDS011;2539;52.568;13.364;2024-02-21T05:50:32;27.53;;;10.40;;
5040;SDS011;2539;52.568;13.364;2024-02-21T05:52:59;16.60;;;9.10;;
5040;SDS011;2539;52.568;13.364;2024-02-21T05:55:25;17.80;;;9.50;;
5040;SDS011;2539;52.568;13.364;2024-02-21T05:57:53;22.37;;;11.30;;
5040;SDS011;2539;52.568;13.364;2024-02-21T06:00:21;22.33;;;10.47;;
5040;SDS011;2539;52.568;13.364;2024-02-21T06:02:47;18.57;;;8.67;;
5040;SDS011;2539;52.568;13.364;2024-02-21T06:05:13;26.47;;;11.17;;
5040;SDS011;2539;52.568;13.364;2024-02-21T06:07:39;21.50;;;8.30;;
5040;SDS011;2539;52.568;13.364;2024-02-21T06:10:06;18.53;;;9.70;;
5040;SDS011;2539;52.568;13.364;2024-02-21T06:12:33;28.97;;;11.30;;
5040;SDS011;2539;52.568;13.364;2024-02-21T06:14:59;22.47;;;9.90;;
5040;SDS011;2539;52.568;13.364;2024-02-21T06:17:25;22.93;;;8.67;;
5040;SDS011;2539;52.568;13.364;2024-02-21T06:19:52;17.47;;;8.43;;
5040;SDS011;2539;52.568;13.364;2024-02-21T06:22:18;22.60;;;10.00;;
5040;SDS011;2539;52.568;13.364;2024-02-21T06:24:44;18.90;;;9.73;;
5040;SDS011;2539;52.568;13.364;2024-02-21T06:27:11;19.00;;;10.07;;
5040;SDS011;2539;52.568;13.364;2024-02-21T06:29:37;22.53;;;9.83;;
5040;SDS011;2539;52.568;13.364;2024-02-21T06:32:04;20.90;;;9.43;;
5040;SDS011;2539;52.568;13.364;2024-02-21T06:34:31;20.10;;;9.67;;
5040;SDS011;2539;52.568;13.364;2024-02-21T06:36:57;22.27;;;10.17;;
5040;SDS011;2539;52.568;13.364;2024-02-21T06:39:24;18.80;;;9.90;;
5040;SDS011;2539;52.568;13.364;2024-02-21T06:41:50;24.33;;;10.17;;
5040;SDS011;2539;52.568;13.364;2024-02-21T06:44:17;19.70;;;9.40;;
5040;SDS011;2539;52.568;13.364;2024-02-21T06:46:43;20.00;;;9.97;;
5040;SDS011;2539;52.568;13.364;2024-02-21T06:49:10;24.97;;;10.80;;
5040;SDS011;2539;52.568;13.364;2024-02-21T06:51:42;23.10;;;10.83;;
5040;SDS011;2539;52.568;13.364;2024-02-21T06:54:09;18.37;;;10.37;;
5040;SDS011;2539;52.568;13.364;2024-02-21T06:56:39;14.97;;;9.87;;
5040;SDS011;2539;52.568;13.364;2024-02-21T06:59:06;18.17;;;9.33;;
5040;SDS011;2539;52.568;13.364;2024-02-21T07:01:32;16.30;;;9.70;;
5040;SDS011;2539;52.568;13.364;2024-02-21T07:03:58;18.60;;;10.27;;
5040;SDS011;2539;52.568;13.364;2024-02-21T07:06:24;15.40;;;10.83;;
5040;SDS011;2539;52.568;13.364;2024-02-21T07:08:51;16.53;;;10.30;;
5040;SDS011;2539;52.568;13.364;2024-02-21T07:11:17;15.70;;;10.00;;
5040;SDS011;2539;52.568;13.364;2024-02-21T07:13:43;21.83;;;10.80;;
5040;SDS011;2539;52.568;13.364;2024-02-21T07:16:09;24.07;;;9.97;;
5040;SDS011;2539;52.568;13.364;2024-02-21T07:18:36;18.73;;;9.30;;
5040;SDS011;2539;52.568;13.364;2024-02-21T07:21:02;15.80;;;9.20;;
5040;SDS011;2539;52.568;13.364;2024-02-21T07:23:28;18.97;;;9.80;;
5040;SDS011;2539;52.568;13.364;2024-02-21T07:25:54;14.40;;;9.30;;
5040;SDS011;2539;52.568;13.364;2024-02-21T07:28:21;14.17;;;9.83;;
5040;SDS011;2539;52.568;13.364;2024-02-21T07:30:47;18.10;;;10.50;;
5040;SDS011;2539;52.568;13.364;2024-02-21T07:33:14;19.57;;;10.23;;
5040;SDS011;2539;52.568;13.364;2024-02-21T07:35:40;25.77;;;11.63;;
5040;SDS011;2539;52.568;13.364;2024-02-21T07:38:07;13.43;;;9.03;;
5040;SDS011;2539;52.568;13.364;2024-02-21T07:40:38;14.33;;;9.10;;
5040;SDS011;2539;52.568;13.364;2024-02-21T07:43:04;17.87;;;8.80;;
5040;SDS011;2539;52.568;13.364;2024-02-21T07:45:31;15.10;;;8.53;;
5040;SDS011;2539;52.568;13.364;2024-02-21T07:47:57;13.63;;;8.93;;
5040;SDS011;2539;52.568;13.364;2024-02-21T07:50:23;20.30;;;9.40;;
5040;SDS011;2539;52.568;13.364;2024-02-21T07:52:49;16.10;;;8.90;;
5040;SDS011;2539;52.568;13.364;2024-02-21T07:55:16;16.17;;;8.87;;
5040;SDS011;2539;52.568;13.364;2024-02-21T07:57:42;14.00;;;8.93;;
5040;SDS011;2539;52.568;13.364;2024-02-21T08:00:08;14.40;;;8.53;;
5040;SDS011;2539;52.568;13.364;2024-02-21T08:02:39;16.97;;;8.83;;
5040;SDS011;2539;52.568;13.364;2024-02-21T08:05:05;15.87;;;9.30;;
5040;SDS011;2539;52.568;13.364;2024-02-21T08:07:31;12.73;;;7.73;;
5040;SDS011;2539;52.568;13.364;2024-02-21T08:09:58;16.57;;;9.53;;
5040;SDS011;2539;52.568;13.364;2024-02-21T08:12:24;14.33;;;7.93;;
5040;SDS011;2539;52.568;13.364;2024-02-21T08:14:50;16.97;;;9.03;;
5040;SDS011;2539;52.568;13.364;2024-02-21T08:17:16;18.00;;;8.80;;
5040;SDS011;2539;52.568;13.364;2024-02-21T08:19:42;12.70;;;7.83;;
5040;SDS011;2539;52.568;13.364;2024-02-21T08:22:09;12.37;;;8.10;;
5040;SDS011;2539;52.568;13.364;2024-02-21T08:24:35;21.13;;;8.17;;
5040;SDS011;2539;52.568;13.364;2024-02-21T08:27:01;16.83;;;8.30;;
5040;SDS011;2539;52.568;13.364;2024-02-21T08:29:28;13.40;;;8.73;;
5040;SDS011;2539;52.568;13.364;2024-02-21T08:31:54;15.23;;;9.30;;
5040;SDS011;2539;52.568;13.364;2024-02-21T08:34:20;13.37;;;8.70;;
5040;SDS011;2539;52.568;13.364;2024-02-21T08:36:46;17.53;;;8.50;;
5040;SDS011;2539;52.568;13.364;2024-02-21T08:39:13;15.57;;;7.90;;
5040;SDS011;2539;52.568;13.364;2024-02-21T08:41:42;14.70;;;8.20;;
5040;SDS011;2539;52.568;13.364;2024-02-21T08:44:08;17.77;;;8.83;;
5040;SDS011;2539;52.568;13.364;2024-02-21T08:46:35;17.23;;;8.20;;
5040;SDS011;2539;52.568;13.364;2024-02-21T08:49:03;14.40;;;9.30;;
5040;SDS011;2539;52.568;13.364;2024-02-21T08:51:30;15.50;;;9.50;;
5040;SDS011;2539;52.568;13.364;2024-02-21T08:53:56;16.93;;;9.30;;
5040;SDS011;2539;52.568;13.364;2024-02-21T08:56:22;13.90;;;8.43;;
5040;SDS011;2539;52.568;13.364;2024-02-21T08:58:48;15.90;;;9.37;;
5040;SDS011;2539;52.568;13.364;2024-02-21T09:01:15;15.40;;;8.00;;
5040;SDS011;2539;52.568;13.364;2024-02-21T09:03:42;14.87;;;9.27;;
5040;SDS011;2539;52.568;13.364;2024-02-21T09:06:10;17.70;;;9.97;;
5040;SDS011;2539;52.568;13.364;2024-02-21T09:08:38;19.50;;;8.43;;
5040;SDS011;2539;52.568;13.364;2024-02-21T09:11:05;14.77;;;10.10;;
5040;SDS011;2539;52.568;13.364;2024-02-21T09:13:32;14.50;;;9.70;;
5040;SDS011;2539;52.568;13.364;2024-02-21T09:15:58;20.50;;;10.40;;
5040;SDS011;2539;52.568;13.364;2024-02-21T09:18:24;13.73;;;8.80;;
5040;SDS011;2539;52.568;13.364;2024-02-21T09:20:50;15.20;;;9.63;;
5040;SDS011;2539;52.568;13.364;2024-02-21T09:23:17;18.07;;;9.60;;
5040;SDS011;2539;52.568;13.364;2024-02-21T09:25:45;18.03;;;10.20;;
5040;SDS011;2539;52.568;13.364;2024-02-21T09:28:11;17.30;;;10.03;;
5040;SDS011;2539;52.568;13.364;2024-02-21T09:30:39;15.33;;;10.20;;
5040;SDS011;2539;52.568;13.364;2024-02-21T09:33:05;14.20;;;10.00;;
5040;SDS011;2539;52.568;13.364;2024-02-21T09:35:31;17.50;;;10.57;;
5040;SDS011;2539;52.568;13.364;2024-02-21T09:37:58;17.87;;;11.23;;
5040;SDS011;2539;52.568;13.364;2024-02-21T09:40:24;15.03;;;10.20;;
5040;SDS011;2539;52.568;13.364;2024-02-21T09:42:55;19.43;;;10.93;;
5040;SDS011;2539;52.568;13.364;2024-02-21T09:45:29;18.63;;;11.00;;
5040;SDS011;2539;52.568;13.364;2024-02-21T09:50:50;17.10;;;10.90;;
5040;SDS011;2539;52.568;13.364;2024-02-21T09:53:17;15.57;;;10.00;;
5040;SDS011;2539;52.568;13.364;2024-02-21T09:55:46;14.77;;;10.80;;
5040;SDS011;2539;52.568;13.364;2024-02-21T09:58:14;18.27;;;12.53;;
5040;SDS011;2539;52.568;13.364;2024-02-21T10:00:40;18.80;;;11.40;;
5040;SDS011;2539;52.568;13.364;2024-02-21T10:03:06;15.40;;;10.67;;
5040;SDS011;2539;52.568;13.364;2024-02-21T10:05:35;20.23;;;10.70;;
5040;SDS011;2539;52.568;13.364;2024-02-21T10:08:01;17.37;;;11.80;;
5040;SDS011;2539;52.568;13.364;2024-02-21T10:10:27;18.37;;;10.50;;
5040;SDS011;2539;52.568;13.364;2024-02-21T10:12:55;17.80;;;10.80;;
5040;SDS011;2539;52.568;13.364;2024-02-21T10:15:24;15.53;;;10.30;;
5040;SDS011;2539;52.568;13.364;2024-02-21T10:18:00;12.60;;;10.00;;
5040;SDS011;2539;52.568;13.364;2024-02-21T10:20:29;14.90;;;9.67;;
5040;SDS011;2539;52.568;13.364;2024-02-21T10:23:04;17.20;;;9.90;;
5040;SDS011;2539;52.568;13.364;2024-02-21T10:25:35;17.73;;;10.10;;
5040;SDS011;2539;52.568;13.364;2024-02-21T10:28:04;19.40;;;9.50;;
5040;SDS011;2539;52.568;13.364;2024-02-21T10:30:30;19.83;;;9.00;;
5040;SDS011;2539;52.568;13.364;2024-02-21T10:32:57;16.53;;;9.67;;
5040;SDS011;2539;52.568;13.364;2024-02-21T10:35:30;15.87;;;9.53;;
5040;SDS011;2539;52.568;13.364;2024-02-21T10:37:58;13.30;;;9.10;;
5040;SDS011;2539;52.568;13.364;2024-02-21T10:40:25;13.43;;;9.20;;
5040;SDS011;2539;52.568;13.364;2024-02-21T10:42:55;16.60;;;9.70;;
5040;SDS011;2539;52.568;13.364;2024-02-21T10:45:27;12.50;;;8.90;;
5040;SDS011;2539;52.568;13.364;2024-02-21T10:47:56;11.60;;;8.50;;
5040;SDS011;2539;52.568;13.364;2024-02-21T10:50:32;15.93;;;9.70;;
5040;SDS011;2539;52.568;13.364;2024-02-21T10:55:38;11.23;;;8.87;;
5040;SDS011;2539;52.568;13.364;2024-02-21T10:58:07;15.50;;;9.80;;
5040;SDS011;2539;52.568;13.364;2024-02-21T11:00:36;12.30;;;9.10;;
5040;SDS011;2539;52.568;13.364;2024-02-21T11:03:03;13.80;;;8.47;;
5040;SDS011;2539;52.568;13.364;2024-02-21T11:05:30;13.47;;;9.83;;
5040;SDS011;2539;52.568;13.364;2024-02-21T11:07:58;11.10;;;8.10;;
5040;SDS011;2539;52.568;13.364;2024-02-21T11:10:25;15.83;;;9.47;;
5040;SDS011;2539;52.568;13.364;2024-02-21T11:12:52;9.87;;;8.30;;
5040;SDS011;2539;52.568;13.364;2024-02-21T11:15:25;10.80;;;8.23;;
5040;SDS011;2539;52.568;13.364;2024-02-21T11:17:56;11.93;;;8.60;;
5040;SDS011;2539;52.568;13.364;2024-02-21T11:20:31;12.53;;;8.20;;
5040;SDS011;2539;52.568;13.364;2024-02-21T11:22:59;15.30;;;8.20;;
5040;SDS011;2539;52.568;13.364;2024-02-21T11:25:25;11.90;;;8.10;;
5040;SDS011;2539;52.568;13.364;2024-02-21T11:27:58;13.07;;;7.77;;
5040;SDS011;2539;52.568;13.364;2024-02-21T11:30:32;12.30;;;9.10;;
5040;SDS011;2539;52.568;13.364;2024-02-21T11:33:01;15.70;;;9.43;;
5040;SDS011;2539;52.568;13.364;2024-02-21T11:35:34;11.70;;;8.13;;
5040;SDS011;2539;52.568;13.364;2024-02-21T11:38:08;12.43;;;7.93;;
5040;SDS011;2539;52.568;13.364;2024-02-21T11:40:38;10.37;;;8.10;;
5040;SDS011;2539;52.568;13.364;2024-02-21T11:43:06;19.27;;;12.40;;
5040;SDS011;2539;52.568;13.364;2024-02-21T11:45:32;17.00;;;11.87;;
5040;SDS011;2539;52.568;13.364;2024-02-21T11:47:59;8.90;;;6.60;;
5040;SDS011;2539;52.568;13.364;2024-02-21T11:50:32;12.57;;;6.93;;
5040;SDS011;2539;52.568;13.364;2024-02-21T11:53:00;7.10;;;6.40;;
5040;SDS011;2539;52.568;13.364;2024-02-21T11:55:26;11.13;;;7.07;;
5040;SDS011;2539;52.568;13.364;2024-02-21T11:57:52;7.93;;;6.10;;
5040;SDS011;2539;52.568;13.364;2024-02-21T12:00:19;9.93;;;6.47;;
5040;SDS011;2539;52.568;13.364;2024-02-21T12:02:50;9.03;;;7.20;;
5040;SDS011;2539;52.568;13.364;2024-02-21T12:05:18;11.57;;;7.00;;
5040;SDS011;2539;52.568;13.364;2024-02-21T12:07:44;10.67;;;5.97;;
5040;SDS011;2539;52.568;13.364;2024-02-21T12:10:28;7.97;;;5.60;;
5040;SDS011;2539;52.568;13.364;2024-02-21T12:13:13;7.93;;;5.53;;
5040;SDS011;2539;52.568;13.364;2024-02-21T12:15:39;8.33;;;5.57;;
5040;SDS011;2539;52.568;13.364;2024-02-21T12:18:06;8.03;;;5.53;;
5040;SDS011;2539;52.568;13.364;2024-02-21T12:20:32;9.80;;;6.03;;
5040;SDS011;2539;52.568;13.364;2024-02-21T12:23:01;8.87;;;5.67;;
5040;SDS011;2539;52.568;13.364;2024-02-21T12:25:29;10.33;;;5.93;;
5040;SDS011;2539;52.568;13.364;2024-02-21T12:27:56;7.00;;;5.20;;
5040;SDS011;2539;52.568;13.364;2024-02-21T12:30:22;7.87;;;5.20;;
5040;SDS011;2539;52.568;13.364;2024-02-21T12:32:48;9.63;;;5.77;;
5040;SDS011;2539;52.568;13.364;2024-02-21T12:35:15;8.07;;;5.80;;
5040;SDS011;2539;52.568;13.364;2024-02-21T12:37:41;9.83;;;5.73;;
5040;SDS011;2539;52.568;13.364;2024-02-21T12:40:08;10.57;;;6.17;;
5040;SDS011;2539;52.568;13.364;2024-02-21T12:42:36;9.93;;;6.10;;
5040;SDS011;2539;52.568;13.364;2024-02-21T12:45:02;8.80;;;5.37;;
5040;SDS011;2539;52.568;13.364;2024-02-21T12:47:29;12.50;;;10.10;;
5040;SDS011;2539;52.568;13.364;2024-02-21T12:49:55;12.50;;;5.90;;
5040;SDS011;2539;52.568;13.364;2024-02-21T12:52:22;9.97;;;5.43;;
5040;SDS011;2539;52.568;13.364;2024-02-21T12:54:48;8.57;;;6.23;;
5040;SDS011;2539;52.568;13.364;2024-02-21T12:57:16;6.70;;;5.87;;
5040;SDS011;2539;52.568;13.364;2024-02-21T12:59:42;8.23;;;5.53;;
5040;SDS011;2539;52.568;13.364;2024-02-21T13:02:08;12.13;;;4.90;;
5040;SDS011;2539;52.568;13.364;2024-02-21T13:04:35;9.27;;;4.50;;
5040;SDS011;2539;52.568;13.364;2024-02-21T13:07:01;6.43;;;4.70;;
5040;SDS011;2539;52.568;13.364;2024-02-21T13:09:28;8.87;;;4.00;;
5040;SDS011;2539;52.568;13.364;2024-02-21T13:11:54;7.53;;;4.07;;
5040;SDS011;2539;52.568;13.364;2024-02-21T13:14:20;14.03;;;10.50;;
5040;SDS011;2539;52.568;13.364;2024-02-21T13:16:48;6.17;;;4.13;;
5040;SDS011;2539;52.568;13.364;2024-02-21T13:19:15;8.43;;;4.10;;
5040;SDS011;2539;52.568;13.364;2024-02-21T13:21:43;9.10;;;4.80;;
5040;SDS011;2539;52.568;13.364;2024-02-21T13:24:09;9.23;;;5.40;;
5040;SDS011;2539;52.568;13.364;2024-02-21T13:26:35;8.20;;;5.17;;
5040;SDS011;2539;52.568;13.364;2024-02-21T13:29:01;6.33;;;5.00;;
5040;SDS011;2539;52.568;13.364;2024-02-21T13:31:28;6.13;;;5.10;;
5040;SDS011;2539;52.568;13.364;2024-02-21T13:33:54;6.30;;;5.03;;
5040;SDS011;2539;52.568;13.364;2024-02-21T13:36:21;8.83;;;5.37;;
5040;SDS011;2539;52.568;13.364;2024-02-21T13:38:47;8.50;;;5.50;;
5040;SDS011;2539;52.568;13.364;2024-02-21T13:41:13;9.80;;;5.30;;
5040;SDS011;2539;52.568;13.364;2024-02-21T13:43:40;7.70;;;5.17;;
5040;SDS011;2539;52.568;13.364;2024-02-21T13:46:06;10.37;;;5.30;;
5040;SDS011;2539;52.568;13.364;2024-02-21T13:48:35;11.23;;;5.37;;
5040;SDS011;2539;52.568;13.364;2024-02-21T13:51:01;8.93;;;4.80;;
5040;SDS011;2539;52.568;13.364;2024-02-21T13:53:28;8.57;;;4.77;;
5040;SDS011;2539;52.568;13.364;2024-02-21T13:55:54;6.80;;;4.60;;
5040;SDS011;2539;52.568;13.364;2024-02-21T13:58:19;11.50;;;5.50;;
5040;SDS011;2539;52.568;13.364;2024-02-21T14:00:46;7.50;;;4.60;;
5040;SDS011;2539;52.568;13.364;2024-02-21T14:03:11;8.43;;;4.40;;
5040;SDS011;2539;52.568;13.364;2024-02-21T14:05:38;6.90;;;4.17;;
5040;SDS011;2539;52.568;13.364;2024-02-21T14:08:06;6.87;;;4.80;;
5040;SDS011;2539;52.568;13.364;2024-02-21T14:10:32;10.70;;;5.03;;
5040;SDS011;2539;52.568;13.364;2024-02-21T14:12:59;8.90;;;5.03;;
5040;SDS011;2539;52.568;13.364;2024-02-21T14:15:25;9.60;;;5.17;;
5040;SDS011;2539;52.568;13.364;2024-02-21T14:17:51;9.50;;;5.20;;
5040;SDS011;2539;52.568;13.364;2024-02-21T14:20:17;6.90;;;4.63;;
5040;SDS011;2539;52.568;13.364;2024-02-21T14:22:42;9.37;;;4.37;;
5040;SDS011;2539;52.568;13.364;2024-02-21T14:25:08;8.63;;;4.90;;
5040;SDS011;2539;52.568;13.364;2024-02-21T14:27:35;8.20;;;4.73;;
5040;SDS011;2539;52.568;13.364;2024-02-21T14:30:04;5.73;;;4.47;;
5040;SDS011;2539;52.568;13.364;2024-02-21T14:32:31;7.40;;;4.83;;
5040;SDS011;2539;52.568;13.364;2024-02-21T14:34:58;11.77;;;5.17;;
5040;SDS011;2539;52.568;13.364;2024-02-21T14:37:24;15.53;;;5.40;;
5040;SDS011;2539;52.568;13.364;2024-02-21T14:39:51;5.90;;;3.73;;
5040;SDS011;2539;52.568;13.364;2024-02-21T14:42:17;10.60;;;4.93;;
5040;SDS011;2539;52.568;13.364;2024-02-21T14:44:43;9.97;;;4.90;;
5040;SDS011;2539;52.568;13.364;2024-02-21T14:47:09;9.60;;;4.73;;
5040;SDS011;2539;52.568;13.364;2024-02-21T14:49:36;13.57;;;4.50;;
5040;SDS011;2539;52.568;13.364;2024-02-21T14:52:02;8.20;;;4.13;;
5040;SDS011;2539;52.568;13.364;2024-02-21T14:54:28;5.20;;;3.90;;